MMAS/AGU METAR and TAF weather

Enter ICAO airport designator
Station Type Date Time Source
MMAS METAR 2019/05/19 04:40 UTC NOAA

MMAS 190440Z 11005KT 10SM SKC 17/M08 A3017


Station Type Date Time Source
MMAS Decoded METAR 2019/05/19 04:40 UTC NOAA

Aguascalientes, Ags., Mexico (MMAS) 21-53N 102-18W
May 19, 2019 - 12:40 AM EDT / 2019.05.19 0440 UTC
Wind: from the ESE (110 degrees) at 6 MPH (5 KT):0
Visibility: 10 mile(s):0
Sky conditions: clear
Temperature: 62 F (17 C)
Dew Point: 17 F (-8 C)
Relative Humidity: 17%
Pressure (altimeter): 30.17 in. Hg (1021 hPa)
ob: MMAS 190440Z 11005KT 10SM SKC 17/M08 A3017
cycle: 4

Station Type Date Time Source
MMAS TAF 2019/05/19 06:44 UTC NOAA

TAF MMAS 190440Z 1906/2006 26005KT P6SM SKC
FM191800 22010KT P6SM SKC
FM200200 20005KT P6SM SKC

Example: see airport list